Philadelphia, Pennsylvania
Traffic Map
Current Weather Conditions
Philadelphia, Pennsylvania
Overcast
Overcast
13°
Feels Like: 13°
Wind Chill: 13° Ceiling: 4500
Heat Index: 13° Visibility: 10mi
Dew Point: Wind: 16mph
Humidity: 72% Direction: 320° (NW)
Pressure: 29.78in Gusts: 0mph
Raw Report DataKPHL 231654Z 32014KT 10SM FEW015 BKN045 OVC070 13/08 A2978 RMK AO2 SLP085 T01280078 PNO $
Traffic Incident Summary
Active as of:
Severity:
Category:
InformationThere was an issue retrieving the traffic information for this location. Please try a different location or try again shortly.
Advertisements
Track Severe Weather on mobile